createdAt,value
2023-04-20T00:00:11.557Z,4.65
2023-04-20T00:03:01.942Z,3.92
2023-04-20T00:05:51.322Z,4.50
2023-04-20T00:08:37.660Z,4.10
2023-04-20T00:11:23.433Z,4.25
2023-04-20T00:14:09.070Z,4.10
2023-04-20T00:16:55.232Z,4.30
2023-04-20T00:19:41.386Z,4.00
2023-04-20T00:22:28.749Z,4.43
2023-04-20T00:25:15.801Z,4.43
2023-04-20T00:28:01.750Z,5.00
2023-04-20T00:30:47.675Z,4.72
2023-04-20T00:33:33.687Z,4.43
2023-04-20T00:36:19.705Z,4.90
2023-04-20T00:39:05.857Z,4.82
2023-04-20T00:41:52.841Z,5.07
2023-04-20T00:44:38.978Z,5.32
2023-04-20T00:47:25.150Z,5.22
2023-04-20T00:50:11.494Z,5.70
2023-04-20T00:52:58.516Z,5.72
2023-04-20T00:55:44.926Z,5.57
2023-04-20T00:58:34.865Z,6.13
2023-04-20T01:01:21.398Z,5.93
2023-04-20T01:04:08.176Z,5.45
2023-04-20T01:06:54.126Z,6.25
2023-04-20T01:09:40.975Z,5.80
2023-04-20T01:12:27.008Z,5.20
2023-04-20T01:15:13.859Z,5.28
2023-04-20T01:17:59.884Z,5.40
2023-04-20T01:20:47.962Z,5.45
2023-04-20T01:23:35.578Z,5.03
2023-04-20T01:26:25.326Z,5.50
2023-04-20T01:29:11.100Z,5.45
2023-04-20T01:31:56.876Z,4.93
2023-04-20T01:34:44.277Z,4.80
2023-04-20T01:37:30.464Z,5.47
2023-04-20T01:40:16.756Z,6.00
2023-04-20T01:43:02.130Z,5.20
2023-04-20T01:45:47.744Z,5.93
2023-04-20T01:48:34.452Z,5.32
2023-04-20T01:51:20.272Z,4.72
2023-04-20T01:54:06.355Z,4.50
2023-04-20T01:56:53.586Z,4.28
2023-04-20T01:59:39.917Z,4.30
2023-04-20T02:02:25.914Z,4.60
2023-04-20T02:05:13.586Z,4.60
2023-04-20T02:07:59.482Z,4.95
2023-04-20T02:10:45.433Z,3.90
2023-04-20T02:13:33.143Z,4.30
2023-04-20T02:16:22.040Z,4.70
2023-04-20T02:21:54.236Z,4.22
2023-04-20T02:24:41.525Z,4.97
2023-04-20T02:27:27.857Z,4.63
2023-04-20T02:30:14.005Z,4.95
2023-04-20T02:33:01.805Z,4.38
2023-04-20T02:35:48.136Z,4.85
2023-04-20T02:38:34.145Z,4.32
2023-04-20T02:41:20.018Z,5.30
2023-04-20T02:44:06.000Z,4.15
2023-04-20T02:46:55.081Z,4.07
2023-04-20T02:49:43.731Z,4.45
2023-04-20T02:52:30.130Z,4.68
2023-04-20T02:55:19.268Z,4.82
2023-04-20T02:58:08.053Z,4.68
2023-04-20T03:01:14.333Z,4.07
2023-04-20T03:04:00.922Z,3.83
2023-04-20T03:06:47.466Z,4.45
2023-04-20T03:09:38.235Z,4.72
2023-04-20T03:12:36.085Z,5.00
2023-04-20T03:15:42.719Z,4.20
2023-04-20T03:18:48.387Z,4.45
2023-04-20T03:21:34.972Z,4.82
2023-04-20T03:24:20.799Z,4.40
2023-04-20T03:27:06.685Z,4.50
2023-04-20T03:30:10.434Z,4.35
2023-04-20T03:32:56.239Z,4.10
2023-04-20T03:35:43.137Z,4.00
2023-04-20T03:38:30.455Z,4.47
2023-04-20T03:41:16.507Z,4.88
2023-04-20T03:44:02.837Z,4.18
2023-04-20T03:46:59.755Z,4.85
2023-04-20T03:49:45.849Z,4.55
2023-04-20T03:52:31.474Z,4.25
2023-04-20T03:55:20.020Z,4.60
2023-04-20T03:58:11.662Z,4.65
2023-04-20T04:01:10.622Z,4.20
2023-04-20T04:04:01.543Z,4.25
2023-04-20T04:06:48.485Z,4.05
2023-04-20T04:09:34.291Z,4.82
2023-04-20T04:12:21.061Z,4.47
2023-04-20T04:15:08.839Z,4.85
2023-04-20T04:18:00.675Z,4.90
2023-04-20T04:20:48.187Z,5.03
2023-04-20T04:23:34.115Z,6.30
2023-04-20T04:26:26.906Z,6.50
2023-04-20T04:29:13.026Z,6.45
2023-04-20T04:31:59.386Z,5.45
2023-04-20T04:34:45.911Z,7.35
2023-04-20T04:37:32.577Z,6.28
2023-04-20T04:40:19.724Z,6.15
2023-04-20T04:43:10.212Z,6.13
2023-04-20T04:45:58.515Z,5.78
2023-04-20T04:48:46.741Z,5.72
2023-04-20T04:51:33.358Z,5.80
2023-04-20T04:54:19.395Z,6.07
2023-04-20T04:57:05.273Z,5.28
2023-04-20T04:59:50.936Z,5.57
2023-04-20T05:02:37.331Z,5.82
2023-04-20T05:05:23.162Z,5.97
2023-04-20T05:08:08.847Z,6.22
2023-04-20T05:10:54.532Z,5.60
2023-04-20T05:13:39.989Z,6.05
2023-04-20T05:16:25.782Z,6.60
2023-04-20T05:19:12.076Z,6.07
2023-04-20T05:21:57.649Z,6.40
2023-04-20T05:24:43.560Z,6.95
2023-04-20T05:27:29.369Z,6.28
2023-04-20T05:30:21.450Z,5.90
2023-04-20T05:33:08.945Z,7.00
2023-04-20T05:35:58.599Z,6.25
2023-04-20T05:38:44.569Z,6.63
2023-04-20T05:41:29.992Z,6.78
2023-04-20T05:44:15.619Z,5.47
2023-04-20T05:47:01.124Z,6.22
2023-04-20T05:49:47.521Z,6.15
2023-04-20T05:52:33.717Z,5.88
2023-04-20T05:55:22.789Z,5.95
2023-04-20T06:00:58.103Z,5.47
2023-04-20T06:03:44.221Z,5.78
2023-04-20T06:06:30.975Z,5.90
2023-04-20T06:09:17.423Z,5.85
2023-04-20T06:12:03.959Z,6.10
2023-04-20T06:14:50.272Z,6.43
2023-04-20T06:17:41.389Z,5.90
2023-04-20T06:20:27.555Z,5.72
2023-04-20T06:23:13.469Z,6.65
2023-04-20T06:25:59.181Z,6.68
2023-04-20T06:28:45.671Z,6.85
2023-04-20T06:31:31.420Z,6.28
2023-04-20T06:34:17.929Z,6.93
2023-04-20T06:37:06.523Z,6.20
2023-04-20T06:39:56.106Z,7.13
2023-04-20T06:42:42.844Z,5.78
2023-04-20T06:45:29.026Z,5.53
2023-04-20T06:48:30.915Z,6.10
2023-04-20T06:52:45.688Z,5.68
2023-04-20T06:55:31.384Z,6.03
2023-04-20T06:58:23.946Z,5.70
2023-04-20T07:01:10.332Z,7.15
2023-04-20T07:03:56.563Z,6.32
2023-04-20T07:06:42.543Z,7.22
2023-04-20T07:09:28.306Z,6.28
2023-04-20T07:12:15.854Z,7.13
2023-04-20T07:15:07.002Z,6.47
2023-04-20T07:18:21.578Z,6.57
2023-04-20T07:21:10.608Z,6.60
2023-04-20T07:26:44.921Z,7.00
2023-04-20T07:29:32.877Z,6.63
2023-04-20T07:32:19.734Z,7.32
2023-04-20T07:35:06.251Z,6.70
2023-04-20T07:37:52.236Z,7.43
2023-04-20T07:40:37.973Z,8.77
2023-04-20T07:43:23.812Z,7.93
2023-04-20T07:46:09.902Z,7.38
2023-04-20T07:48:57.008Z,7.63
2023-04-20T07:51:43.052Z,8.15
2023-04-20T07:54:29.992Z,7.97
2023-04-20T07:57:24.826Z,8.52
2023-04-20T08:00:12.703Z,8.15
2023-04-20T08:03:03.978Z,7.70
2023-04-20T08:05:50.114Z,7.38
2023-04-20T08:08:36.658Z,8.30
2023-04-20T08:11:24.978Z,8.07
2023-04-20T08:14:14.030Z,8.05
2023-04-20T08:17:00.111Z,8.27
2023-04-20T08:19:46.813Z,8.65
2023-04-20T08:22:35.561Z,9.30
2023-04-20T08:25:23.344Z,6.75
2023-04-20T08:28:19.502Z,7.80
2023-04-20T08:31:16.075Z,6.93
2023-04-20T08:34:03.497Z,6.53
2023-04-20T08:36:50.350Z,7.22
2023-04-20T08:39:36.695Z,8.30
2023-04-20T08:42:22.938Z,7.22
2023-04-20T08:45:10.922Z,7.78
2023-04-20T08:47:59.673Z,8.02
2023-04-20T08:50:46.148Z,7.57
2023-04-20T08:53:33.292Z,7.78
2023-04-20T08:56:19.002Z,7.40
2023-04-20T08:59:06.185Z,7.28
2023-04-20T09:01:53.592Z,7.63
2023-04-20T09:04:41.307Z,7.32
2023-04-20T09:07:40.100Z,7.43
2023-04-20T09:15:36.136Z,6.95
2023-04-20T09:18:23.657Z,6.53
2023-04-20T09:21:11.770Z,7.50
2023-04-20T09:24:11.600Z,7.28
2023-04-20T09:26:57.786Z,6.68
2023-04-20T09:39:22.961Z,5.57
2023-04-20T09:42:13.873Z,5.57
2023-04-20T09:45:36.115Z,5.88
2023-04-20T09:48:25.412Z,5.38
2023-04-20T09:51:26.225Z,5.78
2023-04-20T09:54:13.422Z,5.85
2023-04-20T09:57:15.534Z,5.95
2023-04-20T10:00:07.961Z,6.03
2023-04-20T10:02:55.573Z,6.13
2023-04-20T10:16:26.919Z,4.90
2023-04-20T10:28:22.638Z,5.30
2023-04-20T10:31:14.205Z,5.15
2023-04-20T10:34:02.625Z,5.85
2023-04-20T10:38:23.426Z,5.40
2023-04-20T10:41:11.906Z,5.18
2023-04-20T10:44:09.077Z,4.75
2023-04-20T10:46:55.809Z,4.70
2023-04-20T10:49:45.079Z,5.05
2023-04-20T10:52:41.627Z,5.35
2023-04-20T10:56:00.319Z,5.10
2023-04-20T10:58:46.514Z,5.63
2023-04-20T11:01:36.716Z,5.82
2023-04-20T11:09:35.622Z,5.13
2023-04-20T11:17:58.393Z,4.90
2023-04-20T11:25:58.305Z,4.32
2023-04-20T11:28:55.943Z,4.68
2023-04-20T11:32:12.911Z,3.78
2023-04-20T11:35:08.209Z,4.63
2023-04-20T11:39:35.438Z,4.18
2023-04-20T11:42:22.242Z,4.57
2023-04-20T11:45:11.774Z,5.47
2023-04-20T11:47:58.522Z,4.85
2023-04-20T11:50:44.562Z,7.78
2023-04-20T11:53:30.553Z,7.10
2023-04-20T11:56:16.624Z,5.63
2023-04-20T11:59:02.800Z,5.63
2023-04-20T12:01:48.688Z,7.22
2023-04-20T12:04:34.658Z,5.35
2023-04-20T12:07:22.589Z,6.35
2023-04-20T12:10:09.205Z,6.82
2023-04-20T12:12:57.000Z,5.75
2023-04-20T12:15:45.183Z,6.72
2023-04-20T12:18:31.961Z,5.60
2023-04-20T12:21:18.158Z,5.20
2023-04-20T12:24:04.450Z,5.72
2023-04-20T12:26:51.402Z,5.45
2023-04-20T12:29:39.506Z,10.05
2023-04-20T12:32:25.784Z,7.43
2023-04-20T12:35:12.308Z,4.50
2023-04-20T12:37:58.583Z,5.10
2023-04-20T12:40:44.698Z,5.00
2023-04-20T12:43:36.972Z,3.75
2023-04-20T12:46:24.185Z,7.65
2023-04-20T12:49:16.595Z,5.00
2023-04-20T12:52:02.555Z,3.75
2023-04-20T12:54:51.699Z,3.42
2023-04-20T13:02:24.508Z,2.90
2023-04-20T13:05:11.348Z,3.38
2023-04-20T13:07:57.434Z,3.78
2023-04-20T13:10:43.789Z,3.55
2023-04-20T13:13:30.136Z,3.63
2023-04-20T13:16:16.472Z,3.35
2023-04-20T13:19:03.346Z,3.58
2023-04-20T13:21:48.866Z,4.30
2023-04-20T13:24:34.833Z,3.75
2023-04-20T13:27:20.975Z,3.97
2023-04-20T13:30:08.675Z,3.38
2023-04-20T13:32:54.836Z,4.20
2023-04-20T13:35:40.935Z,3.97
2023-04-20T13:38:28.673Z,3.92
2023-04-20T13:41:17.836Z,3.28
2023-04-20T13:44:05.499Z,3.65
2023-04-20T13:46:51.944Z,3.35
2023-04-20T13:49:37.996Z,3.53
2023-04-20T13:52:25.079Z,3.88
2023-04-20T13:55:12.729Z,3.50
2023-04-20T13:57:59.043Z,3.38
2023-04-20T14:00:45.122Z,3.78
2023-04-20T14:03:32.250Z,4.78
2023-04-20T14:06:18.781Z,4.75
2023-04-20T14:09:05.853Z,4.47
2023-04-20T14:11:57.070Z,4.03
2023-04-20T14:14:43.243Z,3.90
2023-04-20T14:17:31.918Z,4.45
2023-04-20T14:20:18.612Z,4.43
2023-04-20T14:23:05.679Z,4.20
2023-04-20T14:25:52.412Z,4.50
2023-04-20T14:28:38.735Z,4.65
2023-04-20T14:31:26.378Z,4.78
2023-04-20T14:34:13.366Z,4.25
2023-04-20T14:36:58.981Z,4.82
2023-04-20T14:39:45.066Z,5.05
2023-04-20T14:42:30.821Z,4.30
2023-04-20T14:45:16.632Z,4.45
2023-04-20T14:48:03.326Z,5.03
2023-04-20T14:50:49.420Z,5.10
2023-04-20T14:53:37.747Z,5.00
2023-04-20T14:56:24.886Z,5.55
2023-04-20T14:59:11.708Z,6.78
2023-04-20T15:02:02.751Z,6.82
2023-04-20T15:04:52.845Z,6.68
2023-04-20T15:07:39.283Z,8.18
2023-04-20T15:10:30.035Z,7.20
2023-04-20T15:13:19.543Z,6.93
2023-04-20T15:16:07.449Z,5.90
2023-04-20T15:18:54.868Z,5.50
2023-04-20T15:21:42.588Z,5.35
2023-04-20T15:24:33.108Z,6.07
2023-04-20T15:27:27.979Z,5.20
2023-04-20T15:30:13.944Z,5.93
2023-04-20T15:33:04.780Z,8.57
2023-04-20T15:35:51.672Z,8.70
2023-04-20T15:38:38.467Z,7.32
2023-04-20T15:41:25.179Z,6.80
2023-04-20T15:44:10.882Z,8.73
2023-04-20T15:46:58.247Z,8.15
2023-04-20T15:49:45.085Z,10.82
2023-04-20T15:52:35.109Z,6.85
2023-04-20T15:55:21.226Z,5.78
2023-04-20T15:58:07.326Z,5.57
2023-04-20T16:00:53.681Z,4.90
2023-04-20T16:03:39.954Z,5.65
2023-04-20T16:06:27.788Z,5.60
2023-04-20T16:09:14.303Z,5.03
2023-04-20T16:12:05.402Z,5.50
2023-04-20T16:14:53.721Z,5.00
2023-04-20T16:17:40.122Z,5.30
2023-04-20T16:20:27.381Z,5.70
2023-04-20T16:23:14.189Z,4.93
2023-04-20T16:26:01.758Z,5.32
2023-04-20T16:28:47.889Z,6.47
2023-04-20T16:31:35.607Z,5.72
2023-04-20T16:34:21.327Z,5.40
2023-04-20T16:37:07.168Z,5.30
2023-04-20T16:39:52.753Z,5.80
2023-04-20T16:42:38.852Z,4.95
2023-04-20T16:45:26.532Z,5.70
2023-04-20T16:48:12.401Z,6.25
2023-04-20T16:50:58.376Z,5.40
2023-04-20T16:53:46.957Z,5.38
2023-04-20T16:56:32.629Z,5.93
2023-04-20T16:59:18.657Z,6.22
2023-04-20T17:02:04.940Z,6.82
2023-04-20T17:04:51.402Z,6.78
2023-04-20T17:07:37.661Z,7.82
2023-04-20T17:10:24.219Z,7.05
2023-04-20T17:13:10.106Z,7.35
2023-04-20T17:15:56.571Z,7.03
2023-04-20T17:18:42.837Z,11.32
2023-04-20T17:21:31.573Z,10.90
2023-04-20T17:24:17.717Z,7.20
2023-04-20T17:27:04.156Z,7.72
2023-04-20T17:29:51.896Z,6.88
2023-04-20T17:32:38.132Z,6.70
2023-04-20T17:35:23.848Z,6.78
2023-04-20T17:38:09.349Z,6.85
2023-04-20T17:40:55.822Z,8.90
2023-04-20T17:43:41.554Z,13.55
2023-04-20T17:46:27.489Z,9.95
2023-04-20T17:49:13.483Z,8.88
2023-04-20T17:51:59.441Z,7.55
2023-04-20T17:54:46.214Z,8.20
2023-04-20T17:57:32.368Z,7.97
2023-04-20T18:00:18.712Z,8.48
2023-04-20T18:03:04.610Z,8.80
2023-04-20T18:05:50.456Z,8.55
2023-04-20T18:08:37.440Z,8.85
2023-04-20T18:11:24.418Z,8.52
2023-04-20T18:14:10.221Z,7.80
2023-04-20T18:16:56.740Z,6.97
2023-04-20T18:19:44.239Z,6.78
2023-04-20T18:22:30.175Z,7.00
2023-04-20T18:25:19.401Z,8.02
2023-04-20T18:28:05.751Z,9.73
2023-04-20T18:30:52.044Z,10.40
2023-04-20T18:33:37.942Z,10.57
2023-04-20T18:36:24.087Z,10.23
2023-04-20T18:39:10.375Z,9.75
2023-04-20T18:41:56.198Z,9.25
2023-04-20T18:44:42.109Z,9.43
2023-04-20T18:47:29.462Z,9.35
2023-04-20T18:50:15.696Z,8.80
2023-04-20T18:53:02.181Z,10.05
2023-04-20T18:55:47.805Z,9.25
2023-04-20T18:58:34.063Z,9.95
2023-04-20T19:01:19.907Z,10.05
2023-04-20T19:04:05.792Z,9.70
2023-04-20T19:06:51.398Z,10.23
2023-04-20T19:09:37.256Z,9.70
2023-04-20T19:12:23.214Z,9.55
2023-04-20T19:15:09.423Z,10.27
2023-04-20T19:17:58.409Z,9.00
2023-04-20T19:20:44.086Z,9.05
2023-04-20T19:23:29.928Z,9.10
2023-04-20T19:26:17.752Z,9.15
2023-04-20T19:29:03.603Z,9.88
2023-04-20T19:31:49.544Z,10.85
2023-04-20T19:34:35.629Z,9.90
2023-04-20T19:37:21.517Z,10.13
2023-04-20T19:40:08.617Z,9.40
2023-04-20T19:42:55.066Z,8.32
2023-04-20T19:45:41.073Z,10.18
2023-04-20T19:48:27.908Z,9.20
2023-04-20T19:51:13.501Z,9.57
2023-04-20T19:54:01.399Z,10.05
2023-04-20T19:56:47.742Z,9.73
2023-04-20T19:59:33.876Z,8.77
2023-04-20T20:02:21.192Z,9.57
2023-04-20T20:05:07.807Z,9.73
2023-04-20T20:07:54.457Z,9.95
2023-04-20T20:10:40.987Z,9.82
2023-04-20T20:13:27.288Z,9.45
2023-04-20T20:16:12.760Z,9.23
2023-04-20T20:18:59.739Z,9.02
2023-04-20T20:21:45.146Z,10.10
2023-04-20T20:24:30.697Z,9.60
2023-04-20T20:27:16.623Z,10.23
2023-04-20T20:30:03.017Z,9.50
2023-04-20T20:32:49.117Z,9.48
2023-04-20T20:35:38.133Z,9.15
2023-04-20T20:38:24.679Z,9.02
2023-04-20T20:41:11.248Z,10.35
2023-04-20T20:43:58.038Z,10.45
2023-04-20T20:46:44.248Z,10.00
2023-04-20T20:49:35.520Z,8.82
2023-04-20T20:52:22.381Z,9.50
2023-04-20T20:55:09.770Z,9.43
2023-04-20T20:57:55.528Z,10.02
2023-04-20T21:00:41.398Z,9.38
2023-04-20T21:03:27.667Z,10.95
2023-04-20T21:06:14.255Z,9.23
2023-04-20T21:09:02.169Z,9.73
2023-04-20T21:11:48.117Z,10.23
2023-04-20T21:14:34.579Z,10.13
2023-04-20T21:17:21.684Z,9.70
2023-04-20T21:20:09.416Z,9.38
2023-04-20T21:22:55.520Z,9.48
2023-04-20T21:25:41.805Z,9.90
2023-04-20T21:28:28.928Z,9.73
2023-04-20T21:31:14.338Z,10.23
2023-04-20T21:34:00.855Z,10.27
2023-04-20T21:36:46.381Z,10.60
2023-04-20T21:39:35.382Z,9.82
2023-04-20T21:42:21.322Z,9.45
2023-04-20T21:45:11.050Z,9.38
2023-04-20T21:47:56.631Z,9.50
2023-04-20T21:50:42.395Z,9.75
2023-04-20T21:53:30.200Z,9.73
2023-04-20T21:56:15.959Z,10.43
2023-04-20T21:59:01.647Z,9.50
2023-04-20T22:01:47.757Z,11.32
2023-04-20T22:04:33.778Z,10.93
2023-04-20T22:07:20.788Z,10.43
2023-04-20T22:10:07.963Z,11.25
2023-04-20T22:12:54.235Z,9.55
2023-04-20T22:15:40.894Z,10.63
2023-04-20T22:18:26.858Z,10.88
2023-04-20T22:21:12.712Z,10.77
2023-04-20T22:23:58.874Z,10.07
2023-04-20T22:26:45.159Z,10.98
2023-04-20T22:29:31.043Z,10.63
2023-04-20T22:32:17.052Z,10.45
2023-04-20T22:35:03.011Z,10.75
2023-04-20T22:37:48.759Z,10.82
2023-04-20T22:40:34.570Z,10.43
2023-04-20T22:43:21.628Z,10.38
2023-04-20T22:46:07.569Z,9.90
2023-04-20T22:48:53.485Z,9.60
2023-04-20T22:51:39.313Z,9.88
2023-04-20T22:54:25.651Z,9.95
2023-04-20T22:57:11.756Z,9.05
2023-04-20T22:59:57.507Z,9.95
2023-04-20T23:02:43.355Z,9.95
2023-04-20T23:05:29.940Z,9.68
2023-04-20T23:08:17.669Z,10.10
2023-04-20T23:11:04.688Z,10.77
2023-04-20T23:13:50.626Z,10.23
2023-04-20T23:16:36.410Z,10.45
2023-04-20T23:19:22.565Z,9.95
2023-04-20T23:22:11.041Z,10.52
2023-04-20T23:24:57.517Z,10.25
2023-04-20T23:27:43.119Z,9.77
2023-04-20T23:30:29.189Z,10.13
2023-04-20T23:33:14.844Z,10.25
2023-04-20T23:36:01.622Z,10.00
2023-04-20T23:38:47.630Z,9.93
2023-04-20T23:41:33.675Z,10.18
2023-04-20T23:44:19.313Z,9.63
2023-04-20T23:47:04.924Z,9.85
2023-04-20T23:49:51.143Z,9.73
2023-04-20T23:52:37.251Z,9.85
2023-04-20T23:55:23.360Z,9.48
2023-04-20T23:58:09.443Z,9.80
